Terminal Aerodrome Forecast
Issued by NWS Cleveland, OH

Home | Current Version | Previous Version | Text Only | Print | Product List | Glossary Off
Versions: 1 2 3 4 5 6 7 8 9 10 11 12 13 14 15 16 17 18

424
FTUS41 KCLE 141120
TAFMFD
TAF
KMFD 141120Z 1412/1512 18005KT P6SM BKN080
     FM141900 18009KT P6SM SCT150
     FM150400 19012KT P6SM BKN200 WS020/21040KT
     FM150900 21015G25KT P6SM BKN025=

USA.gov is the U.S. government's official web portal to all federal, state and local government web resources and services.